createdAt,value
2023-03-03T00:00:56.065Z,21.03
2023-03-03T00:03:24.848Z,21.05
2023-03-03T00:05:52.314Z,21.06
2023-03-03T00:08:20.462Z,21.06
2023-03-03T00:10:47.369Z,21.06
2023-03-03T00:13:22.580Z,21.05
2023-03-03T00:15:49.497Z,20.97
2023-03-03T00:18:26.301Z,20.97
2023-03-03T00:20:58.080Z,21.03
2023-03-03T00:23:51.032Z,21.07
2023-03-03T00:26:25.938Z,21.07
2023-03-03T00:28:54.626Z,21.06
2023-03-03T00:31:29.305Z,21.04
2023-03-03T00:33:59.598Z,21.03
2023-03-03T00:36:37.172Z,21.01
2023-03-03T00:39:33.747Z,21.02
2023-03-03T00:42:00.702Z,21.02
2023-03-03T00:44:43.989Z,21.00
2023-03-03T00:47:30.686Z,21.04
2023-03-03T00:50:25.307Z,21.04
2023-03-03T00:53:18.985Z,21.05
2023-03-03T00:55:47.109Z,21.05
2023-03-03T00:58:14.289Z,21.03
2023-03-03T01:00:44.564Z,20.98
2023-03-03T01:03:20.601Z,20.94
2023-03-03T01:05:48.745Z,20.96
2023-03-03T01:08:15.646Z,20.95
2023-03-03T01:11:05.170Z,20.95
2023-03-03T01:13:37.826Z,20.96
2023-03-03T01:16:05.536Z,20.99
2023-03-03T01:18:33.152Z,21.03
2023-03-03T01:20:59.994Z,21.01
2023-03-03T01:23:26.677Z,21.01
2023-03-03T01:25:53.219Z,21.01
2023-03-03T01:28:20.862Z,21.04
2023-03-03T01:30:47.377Z,21.05
2023-03-03T01:33:14.111Z,21.04
2023-03-03T01:35:45.755Z,21.05
2023-03-03T01:38:12.853Z,21.07
2023-03-03T01:40:39.814Z,21.07
2023-03-03T01:43:07.281Z,21.07
2023-03-03T01:46:02.781Z,21.05
2023-03-03T01:48:38.038Z,21.03
2023-03-03T01:51:15.697Z,21.01
2023-03-03T01:53:54.962Z,21.00
2023-03-03T01:56:22.376Z,21.00
2023-03-03T01:59:15.688Z,21.00
2023-03-03T02:01:42.641Z,20.99
2023-03-03T02:04:10.079Z,21.00
2023-03-03T02:06:44.679Z,20.98
2023-03-03T02:09:23.375Z,20.98
2023-03-03T02:11:52.364Z,20.95
2023-03-03T02:14:20.370Z,20.96
2023-03-03T02:16:47.004Z,20.96
2023-03-03T02:19:29.923Z,20.92
2023-03-03T02:21:56.766Z,20.90
2023-03-03T02:24:34.844Z,20.92
2023-03-03T02:27:01.656Z,20.93
2023-03-03T02:29:29.504Z,20.94
2023-03-03T02:31:57.222Z,20.90
2023-03-03T02:34:24.284Z,20.86
2023-03-03T02:36:52.165Z,20.82
2023-03-03T02:39:27.019Z,20.79
2023-03-03T02:42:00.556Z,20.75
2023-03-03T02:44:35.074Z,20.73
2023-03-03T02:47:01.920Z,20.74
2023-03-03T02:49:32.235Z,20.74
2023-03-03T02:52:00.507Z,20.76
2023-03-03T02:54:30.154Z,20.80
2023-03-03T02:56:57.950Z,20.86
2023-03-03T02:59:25.025Z,20.85
2023-03-03T03:01:52.534Z,20.82
2023-03-03T03:04:23.513Z,20.75
2023-03-03T03:06:52.097Z,20.74
2023-03-03T03:09:20.363Z,20.71
2023-03-03T03:11:49.280Z,20.71
2023-03-03T03:14:19.357Z,20.68
2023-03-03T03:16:46.076Z,20.67
2023-03-03T03:19:12.751Z,20.66
2023-03-03T03:21:40.555Z,20.69
2023-03-03T03:24:08.308Z,20.71
2023-03-03T03:26:37.155Z,20.70
2023-03-03T03:29:04.009Z,20.70
2023-03-03T03:31:31.410Z,20.65
2023-03-03T03:33:58.074Z,20.63
2023-03-03T03:36:24.701Z,20.62
2023-03-03T03:38:52.449Z,20.63
2023-03-03T03:41:19.064Z,20.62
2023-03-03T03:43:45.933Z,20.62
2023-03-03T03:46:13.201Z,20.59
2023-03-03T03:48:40.037Z,20.60
2023-03-03T03:51:11.477Z,20.60
2023-03-03T03:53:39.100Z,20.62
2023-03-03T03:56:06.080Z,20.62
2023-03-03T03:58:32.771Z,20.62
2023-03-03T04:01:08.055Z,20.63
2023-03-03T04:03:40.173Z,20.65
2023-03-03T04:06:11.424Z,20.66
2023-03-03T04:08:38.307Z,20.68
2023-03-03T04:11:05.103Z,20.66
2023-03-03T04:13:35.156Z,20.62
2023-03-03T04:16:03.820Z,20.57
2023-03-03T04:18:30.680Z,20.57
2023-03-03T04:20:57.708Z,20.58
2023-03-03T04:23:25.808Z,20.61
2023-03-03T04:25:52.867Z,20.63
2023-03-03T04:28:19.559Z,20.65
2023-03-03T04:30:49.248Z,20.65
2023-03-03T04:33:17.690Z,20.64
2023-03-03T04:35:44.238Z,20.65
2023-03-03T04:38:11.061Z,20.63
2023-03-03T04:40:41.799Z,20.65
2023-03-03T04:43:10.190Z,20.65
2023-03-03T04:45:37.067Z,20.65
2023-03-03T04:48:04.328Z,20.66
2023-03-03T04:50:31.236Z,20.65
2023-03-03T04:52:58.134Z,20.58
2023-03-03T04:55:24.701Z,20.54
2023-03-03T04:57:51.851Z,20.55
2023-03-03T05:00:18.705Z,20.58
2023-03-03T05:02:47.894Z,20.56
2023-03-03T05:05:14.868Z,20.58
2023-03-03T05:07:41.667Z,20.59
2023-03-03T05:10:09.040Z,20.63
2023-03-03T05:12:35.732Z,20.61
2023-03-03T05:15:02.262Z,20.62
2023-03-03T05:17:29.125Z,20.62
2023-03-03T05:19:57.279Z,20.62
2023-03-03T05:22:24.733Z,20.63
2023-03-03T05:24:51.633Z,20.65
2023-03-03T05:27:18.156Z,20.59
2023-03-03T05:29:44.970Z,20.51
2023-03-03T05:32:11.617Z,20.35
2023-03-03T05:34:38.314Z,20.30
2023-03-03T05:37:06.711Z,20.40
2023-03-03T05:39:34.745Z,20.47
2023-03-03T05:42:01.914Z,20.48
2023-03-03T05:44:28.701Z,20.50
2023-03-03T05:46:57.682Z,20.51
2023-03-03T05:49:24.586Z,20.54
2023-03-03T05:51:51.318Z,20.53
2023-03-03T05:54:17.885Z,20.54
2023-03-03T05:56:44.615Z,20.57
2023-03-03T05:59:11.112Z,20.59
2023-03-03T06:01:37.862Z,20.60
2023-03-03T06:04:04.428Z,20.60
2023-03-03T06:06:31.097Z,20.57
2023-03-03T06:08:57.791Z,20.55
2023-03-03T06:11:24.400Z,20.50
2023-03-03T06:13:51.264Z,20.38
2023-03-03T06:16:18.212Z,20.31
2023-03-03T06:18:46.926Z,20.35
2023-03-03T06:21:13.653Z,20.40
2023-03-03T06:23:41.299Z,20.44
2023-03-03T06:26:07.986Z,20.50
2023-03-03T06:28:34.670Z,20.49
2023-03-03T06:31:01.184Z,20.51
2023-03-03T06:33:27.730Z,20.54
2023-03-03T06:35:54.871Z,20.55
2023-03-03T06:38:21.604Z,20.56
2023-03-03T06:40:58.667Z,20.57
2023-03-03T06:43:25.304Z,20.55
2023-03-03T06:45:51.953Z,20.51
2023-03-03T06:48:18.626Z,20.51
2023-03-03T06:50:45.160Z,20.52
2023-03-03T06:53:18.070Z,20.54
2023-03-03T06:55:45.272Z,20.51
2023-03-03T06:58:17.752Z,20.36
2023-03-03T07:00:46.410Z,20.30
2023-03-03T07:03:21.907Z,20.38
2023-03-03T07:05:48.573Z,20.44
2023-03-03T07:08:19.842Z,20.44
2023-03-03T07:10:47.877Z,20.42
2023-03-03T07:13:28.766Z,20.49
2023-03-03T07:16:04.234Z,20.52
2023-03-03T07:18:42.712Z,20.51
2023-03-03T07:21:17.787Z,20.49
2023-03-03T07:23:45.327Z,20.53
2023-03-03T07:26:22.762Z,20.56
2023-03-03T07:28:58.967Z,20.52
2023-03-03T07:31:27.702Z,20.56
2023-03-03T07:33:55.517Z,20.57
2023-03-03T07:36:35.655Z,20.56
2023-03-03T07:39:16.349Z,20.56
2023-03-03T07:41:43.328Z,20.29
2023-03-03T07:44:23.724Z,20.25
2023-03-03T07:46:51.468Z,20.17
2023-03-03T07:49:35.933Z,20.28
2023-03-03T07:52:25.017Z,20.44
2023-03-03T07:54:53.180Z,20.50
2023-03-03T07:57:51.668Z,20.63
2023-03-03T08:00:18.238Z,20.71
2023-03-03T08:03:05.085Z,20.77
2023-03-03T08:05:36.384Z,20.81
2023-03-03T08:08:09.258Z,20.84
2023-03-03T08:10:50.083Z,20.88
2023-03-03T08:13:23.623Z,20.91
2023-03-03T08:16:12.323Z,20.94
2023-03-03T08:18:53.244Z,20.95
2023-03-03T08:21:21.695Z,20.96
2023-03-03T08:23:53.279Z,20.94
2023-03-03T08:26:21.801Z,20.96
2023-03-03T08:28:48.488Z,20.97
2023-03-03T08:31:24.888Z,20.94
2023-03-03T08:33:55.002Z,20.78
2023-03-03T08:36:21.937Z,20.58
2023-03-03T08:38:48.471Z,20.51
2023-03-03T08:41:15.241Z,20.42
2023-03-03T08:43:43.248Z,20.48
2023-03-03T08:46:11.770Z,20.65
2023-03-03T08:48:41.057Z,20.69
2023-03-03T08:51:07.672Z,20.73
2023-03-03T08:53:36.555Z,20.81
2023-03-03T08:56:03.993Z,20.85
2023-03-03T08:58:37.114Z,20.88
2023-03-03T09:01:05.046Z,20.91
2023-03-03T09:03:31.782Z,20.94
2023-03-03T09:05:58.361Z,20.98
2023-03-03T09:08:24.948Z,20.89
2023-03-03T09:10:51.499Z,20.90
2023-03-03T09:13:20.048Z,20.91
2023-03-03T09:15:47.584Z,20.84
2023-03-03T09:18:19.419Z,20.85
2023-03-03T09:20:50.749Z,20.70
2023-03-03T09:23:37.210Z,20.51
2023-03-03T09:26:22.539Z,20.42
2023-03-03T09:28:49.298Z,20.41
2023-03-03T09:31:25.156Z,20.41
2023-03-03T09:33:55.154Z,20.42
2023-03-03T09:36:38.049Z,20.38
2023-03-03T09:39:24.219Z,20.30
2023-03-03T09:42:09.558Z,20.33
2023-03-03T09:45:07.353Z,20.54
2023-03-03T09:48:00.028Z,20.57
2023-03-03T09:50:48.489Z,20.54
2023-03-03T09:53:58.420Z,20.78
2023-03-03T09:56:54.752Z,20.96
2023-03-03T09:59:42.096Z,21.02
2023-03-03T10:02:22.498Z,21.08
2023-03-03T10:05:14.357Z,21.12
2023-03-03T10:08:00.082Z,21.17
2023-03-03T10:10:40.720Z,21.20
2023-03-03T15:56:49.842Z,21.42
2023-03-03T15:59:44.997Z,21.60
2023-03-03T16:02:23.125Z,21.62
2023-03-03T16:05:15.391Z,21.72
2023-03-03T16:08:14.201Z,21.87
2023-03-03T16:11:02.763Z,22.01
2023-03-03T16:13:59.369Z,22.13
2023-03-03T16:16:51.993Z,22.15
2023-03-03T16:19:47.607Z,22.25
2023-03-03T16:22:33.521Z,22.33
2023-03-03T16:25:26.479Z,22.37
2023-03-03T16:28:06.742Z,22.41
2023-03-03T16:30:36.858Z,22.33
2023-03-03T16:33:44.024Z,22.31
2023-03-03T16:36:30.658Z,22.29
2023-03-03T16:39:04.431Z,22.28
2023-03-03T16:41:49.041Z,22.28
2023-03-03T16:44:47.450Z,21.99
2023-03-03T16:47:51.561Z,22.03
2023-03-03T16:50:39.413Z,22.14
2023-03-03T16:53:19.335Z,22.16
2023-03-03T16:55:53.888Z,21.92
2023-03-03T16:58:20.310Z,21.91
2023-03-03T17:01:05.123Z,22.01
2023-03-03T17:03:56.007Z,22.04
2023-03-03T17:06:34.643Z,22.01
2023-03-03T17:09:32.917Z,21.95
2023-03-03T17:12:31.754Z,21.96
2023-03-03T17:15:03.955Z,21.94
2023-03-03T17:17:33.398Z,21.95
2023-03-03T17:20:25.419Z,21.93
2023-03-03T17:23:07.619Z,21.96
2023-03-03T17:25:46.033Z,21.98
2023-03-03T17:28:38.218Z,21.99
2023-03-03T17:31:34.197Z,22.04
2023-03-03T17:34:19.062Z,22.05
2023-03-03T17:37:28.059Z,22.04
2023-03-03T17:40:20.551Z,22.06
2023-03-03T17:42:57.775Z,22.08
2023-03-03T17:45:27.676Z,22.08
2023-03-03T17:47:57.333Z,22.06
2023-03-03T17:50:43.928Z,22.05
2023-03-03T17:53:39.737Z,22.02
2023-03-03T17:56:24.433Z,22.00
2023-03-03T17:59:10.610Z,21.90
2023-03-03T18:01:53.374Z,21.79
2023-03-03T18:04:42.516Z,21.81
2023-03-03T18:07:32.822Z,21.91
2023-03-03T18:10:18.197Z,21.98
2023-03-03T18:12:50.607Z,21.88
2023-03-03T18:16:11.268Z,21.76
2023-03-03T18:19:14.580Z,21.65
2023-03-03T18:22:13.886Z,21.70
2023-03-03T18:24:49.474Z,21.68
2023-03-03T18:27:25.084Z,21.72
2023-03-03T18:30:13.448Z,21.82
2023-03-03T18:33:01.861Z,21.86
2023-03-03T18:35:33.676Z,21.86
2023-03-03T18:38:15.574Z,21.86
2023-03-03T18:40:52.652Z,21.92
2023-03-03T18:44:23.211Z,21.91
2023-03-03T18:46:51.981Z,21.92
2023-03-03T18:49:19.007Z,21.91
2023-03-03T18:51:45.808Z,21.91
2023-03-03T18:54:12.389Z,21.93
2023-03-03T18:56:55.862Z,21.91
2023-03-03T18:59:31.324Z,21.91
2023-03-03T19:02:13.173Z,21.91
2023-03-03T19:04:55.645Z,21.89
2023-03-03T19:08:08.201Z,21.89
2023-03-03T19:10:51.380Z,21.88
2023-03-03T19:13:33.065Z,21.86
2023-03-03T19:16:08.066Z,21.84
2023-03-03T19:18:42.061Z,21.71
2023-03-03T19:21:11.278Z,21.68
2023-03-03T19:24:00.520Z,21.66
2023-03-03T19:26:30.250Z,21.68
2023-03-03T19:29:20.616Z,21.62
2023-03-03T19:31:51.736Z,21.62
2023-03-03T19:34:44.582Z,21.50
2023-03-03T19:37:18.736Z,21.51
2023-03-03T19:40:09.911Z,21.51
2023-03-03T19:42:56.410Z,21.58
2023-03-03T19:45:36.777Z,21.56
2023-03-03T19:48:46.158Z,21.54
2023-03-03T19:51:15.607Z,21.50
2023-03-03T19:53:56.967Z,21.42
2023-03-03T19:56:39.677Z,21.26
2023-03-03T19:59:33.514Z,21.19
2023-03-03T20:02:18.768Z,21.08
2023-03-03T20:05:00.693Z,21.11
2023-03-03T20:07:31.246Z,21.14
2023-03-03T20:10:16.632Z,21.32
2023-03-03T20:13:08.015Z,21.37
2023-03-03T20:15:37.338Z,21.44
2023-03-03T20:18:15.300Z,21.44
2023-03-03T20:21:20.361Z,21.38
2023-03-03T20:24:25.132Z,21.35
2023-03-03T20:27:02.734Z,21.37
2023-03-03T20:29:44.845Z,21.36
2023-03-03T20:33:06.401Z,21.30
2023-03-03T20:35:51.157Z,21.29
2023-03-03T20:38:36.198Z,21.26
2023-03-03T20:41:24.233Z,21.26
2023-03-03T20:44:15.378Z,21.26
2023-03-03T20:47:02.162Z,21.22
2023-03-03T20:50:07.253Z,21.17
2023-03-03T20:52:42.872Z,21.08
2023-03-03T20:55:20.940Z,21.08
2023-03-03T20:58:33.734Z,21.06
2023-03-03T21:01:15.034Z,20.95
2023-03-03T21:03:44.878Z,20.97
2023-03-03T21:06:17.979Z,21.03
2023-03-03T21:08:53.433Z,21.05
2023-03-03T21:11:32.295Z,21.02
2023-03-03T21:14:10.139Z,20.96
2023-03-03T21:16:36.737Z,21.06
2023-03-03T21:19:03.311Z,20.95
2023-03-03T21:21:33.495Z,20.97
2023-03-03T21:24:00.116Z,20.96
2023-03-03T21:26:45.136Z,20.90
2023-03-03T21:29:29.434Z,20.95
2023-03-03T21:32:04.607Z,20.97
2023-03-03T21:34:36.236Z,20.92
2023-03-03T21:37:15.392Z,20.84
2023-03-03T21:39:43.722Z,20.79
2023-03-03T21:42:15.451Z,20.74
2023-03-03T21:44:46.822Z,20.80
2023-03-03T21:47:15.640Z,20.74
2023-03-03T21:49:46.081Z,20.80
2023-03-03T21:52:14.915Z,20.71
2023-03-03T21:54:41.379Z,20.79
2023-03-03T21:57:08.135Z,20.98
2023-03-03T21:59:34.590Z,21.11
2023-03-03T22:02:01.034Z,21.24
2023-03-03T22:04:28.388Z,21.27
2023-03-03T22:06:54.915Z,21.06
2023-03-03T22:09:21.702Z,19.91
2023-03-03T22:11:48.721Z,20.03
2023-03-03T22:14:15.476Z,20.15
2023-03-03T22:16:42.453Z,20.45
2023-03-03T22:19:09.253Z,20.72
2023-03-03T22:21:36.568Z,20.90
2023-03-03T22:24:03.630Z,21.04
2023-03-03T22:26:30.107Z,20.83
2023-03-03T22:28:56.597Z,21.00
2023-03-03T22:31:23.253Z,21.09
2023-03-03T22:33:49.929Z,21.07
2023-03-03T22:36:17.087Z,20.79
2023-03-03T22:38:43.553Z,20.84
2023-03-03T22:41:10.113Z,20.89
2023-03-03T22:43:36.667Z,21.02
2023-03-03T22:46:03.961Z,20.87
2023-03-03T22:48:31.479Z,21.02
2023-03-03T22:50:58.124Z,21.16
2023-03-03T22:53:25.432Z,21.26
2023-03-03T22:55:52.380Z,21.29
2023-03-03T22:58:19.976Z,21.35
2023-03-03T23:00:48.300Z,21.35
2023-03-03T23:03:16.164Z,21.35
2023-03-03T23:05:43.045Z,21.31
2023-03-03T23:08:13.252Z,21.33
2023-03-03T23:10:39.944Z,21.34
2023-03-03T23:13:07.155Z,21.34
2023-03-03T23:15:34.432Z,21.33
2023-03-03T23:18:01.078Z,21.37
2023-03-03T23:20:29.910Z,21.37
2023-03-03T23:22:56.688Z,21.37
2023-03-03T23:25:24.348Z,21.41
2023-03-03T23:27:51.134Z,21.39
2023-03-03T23:30:18.779Z,21.35
2023-03-03T23:32:46.845Z,21.34
2023-03-03T23:35:13.424Z,21.35
2023-03-03T23:37:40.011Z,21.32
2023-03-03T23:40:07.305Z,21.26
2023-03-03T23:42:34.623Z,21.32
2023-03-03T23:45:01.166Z,21.31
2023-03-03T23:47:27.724Z,21.33
2023-03-03T23:49:54.171Z,21.36
2023-03-03T23:52:20.654Z,21.38
2023-03-03T23:54:47.204Z,21.37
2023-03-03T23:57:13.685Z,21.37
2023-03-03T23:59:40.177Z,21.35
